sensor_id;sensor_type;location;lat;lon;timestamp;temperature;humidity
2435;DHT22;1228;51.022;6.764;2023-04-08T00:00:35;8.70;99.90
2435;DHT22;1228;51.022;6.764;2023-04-08T00:03:01;8.70;99.90
2435;DHT22;1228;51.022;6.764;2023-04-08T00:05:27;8.80;99.90
2435;DHT22;1228;51.022;6.764;2023-04-08T00:07:52;8.70;99.90
2435;DHT22;1228;51.022;6.764;2023-04-08T00:10:18;8.70;99.90
2435;DHT22;1228;51.022;6.764;2023-04-08T00:12:44;8.70;99.90
2435;DHT22;1228;51.022;6.764;2023-04-08T00:15:09;8.70;99.90
2435;DHT22;1228;51.022;6.764;2023-04-08T00:17:35;8.70;99.90
2435;DHT22;1228;51.022;6.764;2023-04-08T00:20:01;8.70;99.90
2435;DHT22;1228;51.022;6.764;2023-04-08T00:22:27;8.70;99.90
2435;DHT22;1228;51.022;6.764;2023-04-08T00:24:52;8.70;99.90
2435;DHT22;1228;51.022;6.764;2023-04-08T00:27:18;8.70;99.90
2435;DHT22;1228;51.022;6.764;2023-04-08T00:29:44;8.70;99.90
2435;DHT22;1228;51.022;6.764;2023-04-08T00:32:09;8.70;99.90
2435;DHT22;1228;51.022;6.764;2023-04-08T00:34:35;8.70;99.90
2435;DHT22;1228;51.022;6.764;2023-04-08T00:37:02;8.70;99.90
2435;DHT22;1228;51.022;6.764;2023-04-08T00:39:27;8.80;99.90
2435;DHT22;1228;51.022;6.764;2023-04-08T00:41:53;8.70;99.90
2435;DHT22;1228;51.022;6.764;2023-04-08T00:44:18;8.70;99.90
2435;DHT22;1228;51.022;6.764;2023-04-08T00:46:44;8.70;99.90
2435;DHT22;1228;51.022;6.764;2023-04-08T00:49:10;8.70;99.90
2435;DHT22;1228;51.022;6.764;2023-04-08T00:51:36;8.70;99.90
2435;DHT22;1228;51.022;6.764;2023-04-08T00:54:03;8.70;99.90
2435;DHT22;1228;51.022;6.764;2023-04-08T00:56:30;8.80;99.90
2435;DHT22;1228;51.022;6.764;2023-04-08T00:58:57;8.80;99.90
2435;DHT22;1228;51.022;6.764;2023-04-08T01:01:50;8.80;99.90
2435;DHT22;1228;51.022;6.764;2023-04-08T01:07:34;8.90;99.90
2435;DHT22;1228;51.022;6.764;2023-04-08T01:10:14;8.90;99.90
2435;DHT22;1228;51.022;6.764;2023-04-08T01:12:46;8.90;99.90
2435;DHT22;1228;51.022;6.764;2023-04-08T01:15:13;8.80;99.90
2435;DHT22;1228;51.022;6.764;2023-04-08T01:17:39;8.70;99.90
2435;DHT22;1228;51.022;6.764;2023-04-08T01:20:06;8.80;99.90
2435;DHT22;1228;51.022;6.764;2023-04-08T01:25:26;8.80;99.90
2435;DHT22;1228;51.022;6.764;2023-04-08T01:27:55;8.80;99.90
2435;DHT22;1228;51.022;6.764;2023-04-08T01:30:23;8.80;99.90
2435;DHT22;1228;51.022;6.764;2023-04-08T01:32:53;8.80;99.90
2435;DHT22;1228;51.022;6.764;2023-04-08T01:35:20;8.80;99.90
2435;DHT22;1228;51.022;6.764;2023-04-08T01:37:48;8.70;99.90
2435;DHT22;1228;51.022;6.764;2023-04-08T01:40:14;8.70;99.90
2435;DHT22;1228;51.022;6.764;2023-04-08T01:42:41;8.60;99.90
2435;DHT22;1228;51.022;6.764;2023-04-08T01:45:08;8.60;99.90
2435;DHT22;1228;51.022;6.764;2023-04-08T01:47:35;8.60;99.90
2435;DHT22;1228;51.022;6.764;2023-04-08T01:50:01;8.60;99.90
2435;DHT22;1228;51.022;6.764;2023-04-08T01:52:28;8.60;99.90
2435;DHT22;1228;51.022;6.764;2023-04-08T01:54:54;8.60;99.90
2435;DHT22;1228;51.022;6.764;2023-04-08T01:57:27;8.60;99.90
2435;DHT22;1228;51.022;6.764;2023-04-08T01:59:55;8.60;99.90
2435;DHT22;1228;51.022;6.764;2023-04-08T02:02:23;8.60;99.90
2435;DHT22;1228;51.022;6.764;2023-04-08T02:04:50;8.60;99.90
2435;DHT22;1228;51.022;6.764;2023-04-08T02:07:16;8.70;99.90
2435;DHT22;1228;51.022;6.764;2023-04-08T02:09:43;8.60;99.90
2435;DHT22;1228;51.022;6.764;2023-04-08T02:12:08;8.60;99.90
2435;DHT22;1228;51.022;6.764;2023-04-08T02:14:34;8.50;99.90
2435;DHT22;1228;51.022;6.764;2023-04-08T02:17:16;8.50;99.90
2435;DHT22;1228;51.022;6.764;2023-04-08T02:20:02;8.50;99.90
2435;DHT22;1228;51.022;6.764;2023-04-08T02:25:16;8.50;99.90
2435;DHT22;1228;51.022;6.764;2023-04-08T02:27:43;8.40;99.90
2435;DHT22;1228;51.022;6.764;2023-04-08T02:30:11;8.50;99.90
2435;DHT22;1228;51.022;6.764;2023-04-08T02:32:37;8.40;99.90
2435;DHT22;1228;51.022;6.764;2023-04-08T02:35:04;8.40;99.90
2435;DHT22;1228;51.022;6.764;2023-04-08T02:37:30;8.40;99.90
2435;DHT22;1228;51.022;6.764;2023-04-08T02:39:57;8.40;99.90
2435;DHT22;1228;51.022;6.764;2023-04-08T02:42:23;8.30;99.90
2435;DHT22;1228;51.022;6.764;2023-04-08T02:44:49;8.30;99.90
2435;DHT22;1228;51.022;6.764;2023-04-08T02:47:15;8.30;99.90
2435;DHT22;1228;51.022;6.764;2023-04-08T02:49:41;8.30;99.90
2435;DHT22;1228;51.022;6.764;2023-04-08T02:52:06;8.30;99.90
2435;DHT22;1228;51.022;6.764;2023-04-08T02:54:32;8.30;99.90
2435;DHT22;1228;51.022;6.764;2023-04-08T02:56:57;8.40;99.90
2435;DHT22;1228;51.022;6.764;2023-04-08T02:59:23;8.30;99.90
2435;DHT22;1228;51.022;6.764;2023-04-08T03:01:49;8.30;99.90
2435;DHT22;1228;51.022;6.764;2023-04-08T03:04:15;8.30;99.90
2435;DHT22;1228;51.022;6.764;2023-04-08T03:06:40;8.30;99.90
2435;DHT22;1228;51.022;6.764;2023-04-08T03:09:06;8.30;99.90
2435;DHT22;1228;51.022;6.764;2023-04-08T03:11:32;8.30;99.90
2435;DHT22;1228;51.022;6.764;2023-04-08T03:13:57;8.30;99.90
2435;DHT22;1228;51.022;6.764;2023-04-08T03:16:23;8.30;99.90
2435;DHT22;1228;51.022;6.764;2023-04-08T03:18:49;8.30;99.90
2435;DHT22;1228;51.022;6.764;2023-04-08T03:21:16;8.30;99.90
2435;DHT22;1228;51.022;6.764;2023-04-08T03:23:41;8.30;99.90
2435;DHT22;1228;51.022;6.764;2023-04-08T03:26:07;8.30;99.90
2435;DHT22;1228;51.022;6.764;2023-04-08T03:28:33;8.30;99.90
2435;DHT22;1228;51.022;6.764;2023-04-08T03:30:58;8.30;99.90
2435;DHT22;1228;51.022;6.764;2023-04-08T03:33:25;8.30;99.90
2435;DHT22;1228;51.022;6.764;2023-04-08T03:35:52;8.40;99.90
2435;DHT22;1228;51.022;6.764;2023-04-08T03:38:18;8.40;99.90
2435;DHT22;1228;51.022;6.764;2023-04-08T03:40:43;8.50;99.90
2435;DHT22;1228;51.022;6.764;2023-04-08T03:43:09;8.50;99.90
2435;DHT22;1228;51.022;6.764;2023-04-08T03:45:36;8.50;99.90
2435;DHT22;1228;51.022;6.764;2023-04-08T03:48:01;8.50;99.90
2435;DHT22;1228;51.022;6.764;2023-04-08T03:50:27;8.50;99.90
2435;DHT22;1228;51.022;6.764;2023-04-08T03:52:53;8.50;99.90
2435;DHT22;1228;51.022;6.764;2023-04-08T03:55:18;8.50;99.90
2435;DHT22;1228;51.022;6.764;2023-04-08T03:57:44;8.50;99.90
2435;DHT22;1228;51.022;6.764;2023-04-08T04:00:10;8.60;99.90
2435;DHT22;1228;51.022;6.764;2023-04-08T04:02:36;8.60;99.90
2435;DHT22;1228;51.022;6.764;2023-04-08T04:05:02;8.60;99.90
2435;DHT22;1228;51.022;6.764;2023-04-08T04:07:27;8.60;99.90
2435;DHT22;1228;51.022;6.764;2023-04-08T04:09:53;8.60;99.90
2435;DHT22;1228;51.022;6.764;2023-04-08T04:12:21;8.60;99.90
2435;DHT22;1228;51.022;6.764;2023-04-08T04:14:47;8.60;99.90
2435;DHT22;1228;51.022;6.764;2023-04-08T04:17:12;8.60;99.90
2435;DHT22;1228;51.022;6.764;2023-04-08T04:19:38;8.60;99.90
2435;DHT22;1228;51.022;6.764;2023-04-08T04:22:03;8.50;99.90
2435;DHT22;1228;51.022;6.764;2023-04-08T04:24:29;8.50;99.90
2435;DHT22;1228;51.022;6.764;2023-04-08T04:26:54;8.50;99.90
2435;DHT22;1228;51.022;6.764;2023-04-08T04:29:20;8.50;99.90
2435;DHT22;1228;51.022;6.764;2023-04-08T04:31:46;8.50;99.90
2435;DHT22;1228;51.022;6.764;2023-04-08T04:34:12;8.40;99.90
2435;DHT22;1228;51.022;6.764;2023-04-08T04:36:37;8.40;99.90
2435;DHT22;1228;51.022;6.764;2023-04-08T04:39:03;8.50;99.90
2435;DHT22;1228;51.022;6.764;2023-04-08T04:41:28;8.50;99.90
2435;DHT22;1228;51.022;6.764;2023-04-08T04:43:54;8.50;99.90
2435;DHT22;1228;51.022;6.764;2023-04-08T04:46:19;8.50;99.90
2435;DHT22;1228;51.022;6.764;2023-04-08T04:48:45;8.50;99.90
2435;DHT22;1228;51.022;6.764;2023-04-08T04:51:11;8.50;99.90
2435;DHT22;1228;51.022;6.764;2023-04-08T04:53:36;8.50;99.90
2435;DHT22;1228;51.022;6.764;2023-04-08T04:56:02;8.40;99.90
2435;DHT22;1228;51.022;6.764;2023-04-08T04:58:28;8.40;99.90
2435;DHT22;1228;51.022;6.764;2023-04-08T05:00:54;8.40;99.90
2435;DHT22;1228;51.022;6.764;2023-04-08T05:03:19;8.40;99.90
2435;DHT22;1228;51.022;6.764;2023-04-08T05:05:52;8.40;99.90
2435;DHT22;1228;51.022;6.764;2023-04-08T05:08:19;8.40;99.90
2435;DHT22;1228;51.022;6.764;2023-04-08T05:10:44;8.40;99.90
2435;DHT22;1228;51.022;6.764;2023-04-08T05:13:10;8.40;99.90
2435;DHT22;1228;51.022;6.764;2023-04-08T05:15:35;8.20;99.90
2435;DHT22;1228;51.022;6.764;2023-04-08T05:18:01;8.10;99.90
2435;DHT22;1228;51.022;6.764;2023-04-08T05:20:27;8.00;99.90
2435;DHT22;1228;51.022;6.764;2023-04-08T05:22:52;8.00;99.90
2435;DHT22;1228;51.022;6.764;2023-04-08T05:25:18;7.90;99.90
2435;DHT22;1228;51.022;6.764;2023-04-08T05:27:44;7.90;99.90
2435;DHT22;1228;51.022;6.764;2023-04-08T05:30:10;7.90;99.90
2435;DHT22;1228;51.022;6.764;2023-04-08T05:32:35;7.90;99.90
2435;DHT22;1228;51.022;6.764;2023-04-08T05:35:02;8.00;99.90
2435;DHT22;1228;51.022;6.764;2023-04-08T05:37:28;8.10;99.90
2435;DHT22;1228;51.022;6.764;2023-04-08T05:39:53;8.20;99.90
2435;DHT22;1228;51.022;6.764;2023-04-08T05:42:19;8.30;99.90
2435;DHT22;1228;51.022;6.764;2023-04-08T05:44:45;8.30;99.90
2435;DHT22;1228;51.022;6.764;2023-04-08T05:47:10;8.40;99.90
2435;DHT22;1228;51.022;6.764;2023-04-08T05:49:36;8.40;99.90
2435;DHT22;1228;51.022;6.764;2023-04-08T05:52:01;8.50;99.90
2435;DHT22;1228;51.022;6.764;2023-04-08T05:54:28;8.50;99.90
2435;DHT22;1228;51.022;6.764;2023-04-08T05:56:53;8.50;99.90
2435;DHT22;1228;51.022;6.764;2023-04-08T05:59:19;8.60;99.90
2435;DHT22;1228;51.022;6.764;2023-04-08T06:01:45;8.60;99.90
2435;DHT22;1228;51.022;6.764;2023-04-08T06:04:10;8.70;99.90
2435;DHT22;1228;51.022;6.764;2023-04-08T06:06:39;8.70;99.90
2435;DHT22;1228;51.022;6.764;2023-04-08T06:09:05;8.70;99.90
2435;DHT22;1228;51.022;6.764;2023-04-08T06:11:30;8.70;99.90
2435;DHT22;1228;51.022;6.764;2023-04-08T06:13:56;8.70;99.90
2435;DHT22;1228;51.022;6.764;2023-04-08T06:16:22;8.80;99.90
2435;DHT22;1228;51.022;6.764;2023-04-08T06:18:47;8.90;99.90
2435;DHT22;1228;51.022;6.764;2023-04-08T06:21:13;8.90;99.90
2435;DHT22;1228;51.022;6.764;2023-04-08T06:23:39;9.00;99.90
2435;DHT22;1228;51.022;6.764;2023-04-08T06:26:04;9.10;99.90
2435;DHT22;1228;51.022;6.764;2023-04-08T06:28:30;9.20;99.90
2435;DHT22;1228;51.022;6.764;2023-04-08T06:30:56;9.20;99.90
2435;DHT22;1228;51.022;6.764;2023-04-08T06:33:22;9.20;99.90
2435;DHT22;1228;51.022;6.764;2023-04-08T06:35:48;9.30;99.90
2435;DHT22;1228;51.022;6.764;2023-04-08T06:38:13;9.30;99.90
2435;DHT22;1228;51.022;6.764;2023-04-08T06:40:39;9.20;99.90
2435;DHT22;1228;51.022;6.764;2023-04-08T06:43:05;9.30;99.90
2435;DHT22;1228;51.022;6.764;2023-04-08T06:45:34;9.50;99.90
2435;DHT22;1228;51.022;6.764;2023-04-08T06:48:00;9.60;99.90
2435;DHT22;1228;51.022;6.764;2023-04-08T06:50:26;9.80;99.90
2435;DHT22;1228;51.022;6.764;2023-04-08T06:52:51;9.80;99.90
2435;DHT22;1228;51.022;6.764;2023-04-08T06:55:17;9.90;99.90
2435;DHT22;1228;51.022;6.764;2023-04-08T06:57:43;10.00;99.90
2435;DHT22;1228;51.022;6.764;2023-04-08T07:00:09;10.10;99.90
2435;DHT22;1228;51.022;6.764;2023-04-08T07:02:34;10.20;99.90
2435;DHT22;1228;51.022;6.764;2023-04-08T07:05:00;10.30;99.90
2435;DHT22;1228;51.022;6.764;2023-04-08T07:07:25;10.40;99.90
2435;DHT22;1228;51.022;6.764;2023-04-08T07:09:51;10.40;99.90
2435;DHT22;1228;51.022;6.764;2023-04-08T07:12:17;10.40;99.90
2435;DHT22;1228;51.022;6.764;2023-04-08T07:14:42;10.50;99.90
2435;DHT22;1228;51.022;6.764;2023-04-08T07:17:08;10.50;99.90
2435;DHT22;1228;51.022;6.764;2023-04-08T07:19:33;10.60;99.90
2435;DHT22;1228;51.022;6.764;2023-04-08T07:22:00;10.80;99.90
2435;DHT22;1228;51.022;6.764;2023-04-08T07:24:25;11.00;99.90
2435;DHT22;1228;51.022;6.764;2023-04-08T07:26:51;11.10;99.90
2435;DHT22;1228;51.022;6.764;2023-04-08T07:29:17;11.20;99.90
2435;DHT22;1228;51.022;6.764;2023-04-08T07:31:43;11.40;99.90
2435;DHT22;1228;51.022;6.764;2023-04-08T07:34:09;11.50;99.90
2435;DHT22;1228;51.022;6.764;2023-04-08T07:36:35;11.60;99.90
2435;DHT22;1228;51.022;6.764;2023-04-08T07:39:00;11.60;99.90
2435;DHT22;1228;51.022;6.764;2023-04-08T07:41:27;11.60;99.90
2435;DHT22;1228;51.022;6.764;2023-04-08T07:43:52;11.60;99.90
2435;DHT22;1228;51.022;6.764;2023-04-08T07:46:18;11.80;99.90
2435;DHT22;1228;51.022;6.764;2023-04-08T07:48:45;12.10;99.90
2435;DHT22;1228;51.022;6.764;2023-04-08T07:51:11;12.70;99.90
2435;DHT22;1228;51.022;6.764;2023-04-08T07:53:37;12.90;99.90
2435;DHT22;1228;51.022;6.764;2023-04-08T07:56:09;13.10;99.90
2435;DHT22;1228;51.022;6.764;2023-04-08T07:58:34;13.20;99.90
2435;DHT22;1228;51.022;6.764;2023-04-08T08:01:00;13.30;69.70
2435;DHT22;1228;51.022;6.764;2023-04-08T08:03:26;13.40;89.60
2435;DHT22;1228;51.022;6.764;2023-04-08T08:05:51;13.40;25.40
2435;DHT22;1228;51.022;6.764;2023-04-08T08:08:17;13.00;9.40
2435;DHT22;1228;51.022;6.764;2023-04-08T08:10:43;12.80;34.80
2435;DHT22;1228;51.022;6.764;2023-04-08T08:13:08;12.50;80.20
2435;DHT22;1228;51.022;6.764;2023-04-08T08:15:34;12.50;54.80
2435;DHT22;1228;51.022;6.764;2023-04-08T08:17:59;12.30;50.10
2435;DHT22;1228;51.022;6.764;2023-04-08T08:20:25;12.30;95.30
2435;DHT22;1228;51.022;6.764;2023-04-08T08:22:51;12.40;67.10
2435;DHT22;1228;51.022;6.764;2023-04-08T08:25:17;12.60;20.70
2435;DHT22;1228;51.022;6.764;2023-04-08T08:27:42;12.70;1.00
2435;DHT22;1228;51.022;6.764;2023-04-08T08:30:09;12.90;1.00
2435;DHT22;1228;51.022;6.764;2023-04-08T08:32:35;13.10;10.10
2435;DHT22;1228;51.022;6.764;2023-04-08T08:35:01;13.40;1.00
2435;DHT22;1228;51.022;6.764;2023-04-08T08:37:27;13.50;1.00
2435;DHT22;1228;51.022;6.764;2023-04-08T08:39:53;13.40;1.00
2435;DHT22;1228;51.022;6.764;2023-04-08T08:42:22;13.40;1.00
2435;DHT22;1228;51.022;6.764;2023-04-08T08:44:48;13.40;1.00
2435;DHT22;1228;51.022;6.764;2023-04-08T08:47:15;13.40;1.00
2435;DHT22;1228;51.022;6.764;2023-04-08T08:49:41;13.30;1.00
2435;DHT22;1228;51.022;6.764;2023-04-08T08:52:07;13.10;1.00
2435;DHT22;1228;51.022;6.764;2023-04-08T08:54:33;13.00;1.00
2435;DHT22;1228;51.022;6.764;2023-04-08T08:56:58;12.90;5.80
2435;DHT22;1228;51.022;6.764;2023-04-08T08:59:24;12.90;1.00
2435;DHT22;1228;51.022;6.764;2023-04-08T09:01:50;12.90;1.00
2435;DHT22;1228;51.022;6.764;2023-04-08T09:04:17;12.80;1.00
2435;DHT22;1228;51.022;6.764;2023-04-08T09:06:48;12.80;1.00
2435;DHT22;1228;51.022;6.764;2023-04-08T09:09:18;12.90;5.20
2435;DHT22;1228;51.022;6.764;2023-04-08T09:11:45;12.90;1.00
2435;DHT22;1228;51.022;6.764;2023-04-08T09:14:18;13.00;1.00
2435;DHT22;1228;51.022;6.764;2023-04-08T09:16:44;13.00;8.30
2435;DHT22;1228;51.022;6.764;2023-04-08T09:19:10;13.00;1.00
2435;DHT22;1228;51.022;6.764;2023-04-08T09:21:37;12.90;1.00
2435;DHT22;1228;51.022;6.764;2023-04-08T09:24:03;12.90;1.00
2435;DHT22;1228;51.022;6.764;2023-04-08T09:26:29;13.00;11.00
2435;DHT22;1228;51.022;6.764;2023-04-08T09:29:01;13.00;1.00
2435;DHT22;1228;51.022;6.764;2023-04-08T09:31:34;13.00;16.80
2435;DHT22;1228;51.022;6.764;2023-04-08T09:36:34;12.90;10.90
2435;DHT22;1228;51.022;6.764;2023-04-08T09:38:59;13.00;28.30
2435;DHT22;1228;51.022;6.764;2023-04-08T09:41:27;12.80;16.20
2435;DHT22;1228;51.022;6.764;2023-04-08T09:43:55;12.70;67.80
2435;DHT22;1228;51.022;6.764;2023-04-08T09:46:26;12.70;34.70
2435;DHT22;1228;51.022;6.764;2023-04-08T09:49:10;12.60;17.50
2435;DHT22;1228;51.022;6.764;2023-04-08T09:51:48;12.60;35.00
2435;DHT22;1228;51.022;6.764;2023-04-08T09:54:17;12.60;35.00
2435;DHT22;1228;51.022;6.764;2023-04-08T09:56:53;12.50;49.30
2435;DHT22;1228;51.022;6.764;2023-04-08T09:59:20;12.50;44.70
2435;DHT22;1228;51.022;6.764;2023-04-08T10:01:53;12.50;49.20
2435;DHT22;1228;51.022;6.764;2023-04-08T10:04:22;12.40;40.20
2435;DHT22;1228;51.022;6.764;2023-04-08T10:06:56;12.40;89.00
2435;DHT22;1228;51.022;6.764;2023-04-08T10:09:22;12.40;90.70
2435;DHT22;1228;51.022;6.764;2023-04-08T10:11:48;12.40;92.60
2435;DHT22;1228;51.022;6.764;2023-04-08T10:14:15;12.50;87.50
2435;DHT22;1228;51.022;6.764;2023-04-08T10:16:40;12.70;71.80
2435;DHT22;1228;51.022;6.764;2023-04-08T10:19:38;12.90;24.10
2435;DHT22;1228;51.022;6.764;2023-04-08T10:27:40;12.60;99.90
2435;DHT22;1228;51.022;6.764;2023-04-08T10:32:52;12.60;90.30
2435;DHT22;1228;51.022;6.764;2023-04-08T10:35:31;12.70;98.10
2435;DHT22;1228;51.022;6.764;2023-04-08T10:37:57;12.90;55.60
2435;DHT22;1228;51.022;6.764;2023-04-08T10:40:23;12.90;22.20
2435;DHT22;1228;51.022;6.764;2023-04-08T10:42:56;13.00;29.40
2435;DHT22;1228;51.022;6.764;2023-04-08T10:45:23;13.10;1.70
2435;DHT22;1228;51.022;6.764;2023-04-08T10:47:49;13.20;1.00
2435;DHT22;1228;51.022;6.764;2023-04-08T10:50:16;13.20;1.00
2435;DHT22;1228;51.022;6.764;2023-04-08T10:52:49;13.30;1.00
2435;DHT22;1228;51.022;6.764;2023-04-08T10:55:15;13.30;1.00
2435;DHT22;1228;51.022;6.764;2023-04-08T10:57:42;13.10;1.00
2435;DHT22;1228;51.022;6.764;2023-04-08T11:00:14;13.10;7.60
2435;DHT22;1228;51.022;6.764;2023-04-08T11:02:42;13.30;5.20
2435;DHT22;1228;51.022;6.764;2023-04-08T11:05:09;13.30;1.00
2435;DHT22;1228;51.022;6.764;2023-04-08T11:07:41;13.40;1.00
2435;DHT22;1228;51.022;6.764;2023-04-08T11:10:07;13.30;1.00
2435;DHT22;1228;51.022;6.764;2023-04-08T11:12:34;13.10;1.00
2435;DHT22;1228;51.022;6.764;2023-04-08T11:15:04;13.00;1.00
2435;DHT22;1228;51.022;6.764;2023-04-08T11:17:30;12.90;1.00
2435;DHT22;1228;51.022;6.764;2023-04-08T11:19:58;12.70;1.00
2435;DHT22;1228;51.022;6.764;2023-04-08T11:22:27;12.80;6.50
2435;DHT22;1228;51.022;6.764;2023-04-08T11:24:54;12.80;1.00
2435;DHT22;1228;51.022;6.764;2023-04-08T11:27:20;12.70;1.00
2435;DHT22;1228;51.022;6.764;2023-04-08T11:29:56;12.80;1.00
2435;DHT22;1228;51.022;6.764;2023-04-08T11:32:22;12.90;1.00
2435;DHT22;1228;51.022;6.764;2023-04-08T11:34:52;13.20;1.00
2435;DHT22;1228;51.022;6.764;2023-04-08T11:37:17;13.50;1.00
2435;DHT22;1228;51.022;6.764;2023-04-08T11:39:43;13.70;1.00
2435;DHT22;1228;51.022;6.764;2023-04-08T11:42:29;13.90;1.00
2435;DHT22;1228;51.022;6.764;2023-04-08T11:44:55;13.90;99.90
2435;DHT22;1228;51.022;6.764;2023-04-08T11:47:20;14.00;99.90
2435;DHT22;1228;51.022;6.764;2023-04-08T11:49:47;14.10;1.00
2435;DHT22;1228;51.022;6.764;2023-04-08T11:52:13;14.10;1.00
2435;DHT22;1228;51.022;6.764;2023-04-08T11:54:42;14.20;1.00
2435;DHT22;1228;51.022;6.764;2023-04-08T11:57:08;14.40;1.00
2435;DHT22;1228;51.022;6.764;2023-04-08T11:59:36;14.80;1.00
2435;DHT22;1228;51.022;6.764;2023-04-08T12:02:02;14.90;1.00
2435;DHT22;1228;51.022;6.764;2023-04-08T12:04:28;14.60;1.00
2435;DHT22;1228;51.022;6.764;2023-04-08T12:06:55;14.20;1.00
2435;DHT22;1228;51.022;6.764;2023-04-08T12:09:21;14.00;1.00
2435;DHT22;1228;51.022;6.764;2023-04-08T12:11:46;13.90;1.00
2435;DHT22;1228;51.022;6.764;2023-04-08T12:14:12;14.00;1.00
2435;DHT22;1228;51.022;6.764;2023-04-08T12:16:38;13.90;1.00
2435;DHT22;1228;51.022;6.764;2023-04-08T12:19:03;13.70;1.00
2435;DHT22;1228;51.022;6.764;2023-04-08T12:21:30;13.70;1.00
2435;DHT22;1228;51.022;6.764;2023-04-08T12:23:56;13.50;1.00
2435;DHT22;1228;51.022;6.764;2023-04-08T12:26:22;13.40;1.00
2435;DHT22;1228;51.022;6.764;2023-04-08T12:28:48;13.20;1.00
2435;DHT22;1228;51.022;6.764;2023-04-08T12:31:14;13.00;1.00
2435;DHT22;1228;51.022;6.764;2023-04-08T12:33:39;12.80;1.00
2435;DHT22;1228;51.022;6.764;2023-04-08T12:36:05;12.80;1.00
2435;DHT22;1228;51.022;6.764;2023-04-08T12:38:31;12.90;1.00
2435;DHT22;1228;51.022;6.764;2023-04-08T12:40:57;12.90;1.00
2435;DHT22;1228;51.022;6.764;2023-04-08T12:43:23;13.00;1.00
2435;DHT22;1228;51.022;6.764;2023-04-08T12:45:49;13.10;1.00
2435;DHT22;1228;51.022;6.764;2023-04-08T12:48:15;13.10;1.00
2435;DHT22;1228;51.022;6.764;2023-04-08T12:50:41;13.10;1.00
2435;DHT22;1228;51.022;6.764;2023-04-08T12:53:06;13.30;1.00
2435;DHT22;1228;51.022;6.764;2023-04-08T12:55:32;13.50;1.00
2435;DHT22;1228;51.022;6.764;2023-04-08T12:57:58;13.60;1.00
2435;DHT22;1228;51.022;6.764;2023-04-08T13:00:23;13.80;1.00
2435;DHT22;1228;51.022;6.764;2023-04-08T13:02:49;13.60;1.00
2435;DHT22;1228;51.022;6.764;2023-04-08T13:05:14;13.50;1.00
2435;DHT22;1228;51.022;6.764;2023-04-08T13:07:40;13.50;1.00
2435;DHT22;1228;51.022;6.764;2023-04-08T13:10:07;13.40;1.00
2435;DHT22;1228;51.022;6.764;2023-04-08T13:12:33;13.40;1.00
2435;DHT22;1228;51.022;6.764;2023-04-08T13:14:59;13.50;1.00
2435;DHT22;1228;51.022;6.764;2023-04-08T13:17:25;13.60;1.00
2435;DHT22;1228;51.022;6.764;2023-04-08T13:19:52;13.70;1.00
2435;DHT22;1228;51.022;6.764;2023-04-08T13:22:17;13.80;1.00
2435;DHT22;1228;51.022;6.764;2023-04-08T13:24:43;13.80;1.00
2435;DHT22;1228;51.022;6.764;2023-04-08T13:27:09;14.00;1.00
2435;DHT22;1228;51.022;6.764;2023-04-08T13:29:35;14.10;1.00
2435;DHT22;1228;51.022;6.764;2023-04-08T13:32:01;14.00;1.00
2435;DHT22;1228;51.022;6.764;2023-04-08T13:34:26;14.10;1.00
2435;DHT22;1228;51.022;6.764;2023-04-08T13:36:52;14.20;1.00
2435;DHT22;1228;51.022;6.764;2023-04-08T13:39:18;14.20;1.00
2435;DHT22;1228;51.022;6.764;2023-04-08T13:41:43;14.10;1.00
2435;DHT22;1228;51.022;6.764;2023-04-08T13:44:09;13.90;1.00
2435;DHT22;1228;51.022;6.764;2023-04-08T13:46:34;13.80;1.00
2435;DHT22;1228;51.022;6.764;2023-04-08T13:49:00;13.90;1.00
2435;DHT22;1228;51.022;6.764;2023-04-08T13:51:27;13.90;1.00
2435;DHT22;1228;51.022;6.764;2023-04-08T13:53:53;14.00;1.00
2435;DHT22;1228;51.022;6.764;2023-04-08T13:56:19;14.30;1.00
2435;DHT22;1228;51.022;6.764;2023-04-08T13:58:45;14.30;1.00
2435;DHT22;1228;51.022;6.764;2023-04-08T14:01:11;14.20;1.00
2435;DHT22;1228;51.022;6.764;2023-04-08T14:03:37;14.20;1.00
2435;DHT22;1228;51.022;6.764;2023-04-08T14:06:02;14.20;1.00
2435;DHT22;1228;51.022;6.764;2023-04-08T14:08:28;14.10;1.00
2435;DHT22;1228;51.022;6.764;2023-04-08T14:10:57;14.20;1.00
2435;DHT22;1228;51.022;6.764;2023-04-08T14:13:23;14.30;1.00
2435;DHT22;1228;51.022;6.764;2023-04-08T14:15:49;14.30;1.00
2435;DHT22;1228;51.022;6.764;2023-04-08T14:18:15;14.40;1.00
2435;DHT22;1228;51.022;6.764;2023-04-08T14:20:42;14.40;1.00
2435;DHT22;1228;51.022;6.764;2023-04-08T14:23:08;14.30;1.00
2435;DHT22;1228;51.022;6.764;2023-04-08T14:25:34;14.50;1.00
2435;DHT22;1228;51.022;6.764;2023-04-08T14:28:00;14.70;1.00
2435;DHT22;1228;51.022;6.764;2023-04-08T14:30:25;14.70;1.00
2435;DHT22;1228;51.022;6.764;2023-04-08T14:32:51;14.70;1.00
2435;DHT22;1228;51.022;6.764;2023-04-08T14:35:17;14.60;1.00
2435;DHT22;1228;51.022;6.764;2023-04-08T14:37:43;14.40;1.00
2435;DHT22;1228;51.022;6.764;2023-04-08T14:40:09;14.10;1.00
2435;DHT22;1228;51.022;6.764;2023-04-08T14:42:35;14.00;1.00
2435;DHT22;1228;51.022;6.764;2023-04-08T14:45:00;14.00;1.00
2435;DHT22;1228;51.022;6.764;2023-04-08T14:47:26;14.10;1.00
2435;DHT22;1228;51.022;6.764;2023-04-08T14:49:52;14.10;1.00
2435;DHT22;1228;51.022;6.764;2023-04-08T14:52:17;14.20;1.00
2435;DHT22;1228;51.022;6.764;2023-04-08T14:54:43;14.30;1.00
2435;DHT22;1228;51.022;6.764;2023-04-08T14:57:09;14.30;1.00
2435;DHT22;1228;51.022;6.764;2023-04-08T14:59:35;14.20;1.00
2435;DHT22;1228;51.022;6.764;2023-04-08T15:02:01;14.40;1.00
2435;DHT22;1228;51.022;6.764;2023-04-08T15:04:26;14.60;1.00
2435;DHT22;1228;51.022;6.764;2023-04-08T15:06:52;14.70;1.00
2435;DHT22;1228;51.022;6.764;2023-04-08T15:09:18;14.70;1.00
2435;DHT22;1228;51.022;6.764;2023-04-08T15:11:43;14.70;1.00
2435;DHT22;1228;51.022;6.764;2023-04-08T15:14:09;14.90;1.00
2435;DHT22;1228;51.022;6.764;2023-04-08T15:16:34;14.90;1.00
2435;DHT22;1228;51.022;6.764;2023-04-08T15:19:00;14.90;1.00
2435;DHT22;1228;51.022;6.764;2023-04-08T15:21:26;14.90;1.00
2435;DHT22;1228;51.022;6.764;2023-04-08T15:23:52;14.90;1.00
2435;DHT22;1228;51.022;6.764;2023-04-08T15:26:18;14.70;1.00
2435;DHT22;1228;51.022;6.764;2023-04-08T15:28:43;14.60;1.00
2435;DHT22;1228;51.022;6.764;2023-04-08T15:31:09;14.30;1.00
2435;DHT22;1228;51.022;6.764;2023-04-08T15:33:35;14.10;1.00
2435;DHT22;1228;51.022;6.764;2023-04-08T15:36:06;13.90;1.00
2435;DHT22;1228;51.022;6.764;2023-04-08T15:38:31;13.80;1.00
2435;DHT22;1228;51.022;6.764;2023-04-08T15:40:58;13.70;1.00
2435;DHT22;1228;51.022;6.764;2023-04-08T15:43:23;13.80;1.00
2435;DHT22;1228;51.022;6.764;2023-04-08T15:45:49;13.80;1.00
2435;DHT22;1228;51.022;6.764;2023-04-08T15:48:15;13.80;1.00
2435;DHT22;1228;51.022;6.764;2023-04-08T15:50:41;13.70;1.00
2435;DHT22;1228;51.022;6.764;2023-04-08T15:53:06;13.60;1.00
2435;DHT22;1228;51.022;6.764;2023-04-08T15:55:39;13.50;1.00
2435;DHT22;1228;51.022;6.764;2023-04-08T15:58:06;13.40;1.00
2435;DHT22;1228;51.022;6.764;2023-04-08T16:00:31;13.40;1.00
2435;DHT22;1228;51.022;6.764;2023-04-08T16:02:57;13.30;1.00
2435;DHT22;1228;51.022;6.764;2023-04-08T16:05:23;13.40;1.00
2435;DHT22;1228;51.022;6.764;2023-04-08T16:07:48;13.30;1.00
2435;DHT22;1228;51.022;6.764;2023-04-08T16:10:14;13.20;1.00
2435;DHT22;1228;51.022;6.764;2023-04-08T16:12:39;13.20;1.00
2435;DHT22;1228;51.022;6.764;2023-04-08T16:15:05;13.10;1.00
2435;DHT22;1228;51.022;6.764;2023-04-08T16:17:31;13.10;1.00
2435;DHT22;1228;51.022;6.764;2023-04-08T16:19:57;13.20;1.00
2435;DHT22;1228;51.022;6.764;2023-04-08T16:22:22;13.20;1.00
2435;DHT22;1228;51.022;6.764;2023-04-08T16:24:48;13.30;1.00
2435;DHT22;1228;51.022;6.764;2023-04-08T16:27:13;13.30;1.00
2435;DHT22;1228;51.022;6.764;2023-04-08T16:29:39;13.20;1.00